createdAt,value
2018-11-21T00:00:25.221Z,-1.30
2018-11-21T00:03:06.509Z,-1.30
2018-11-21T00:05:47.991Z,-1.40
2018-11-21T00:08:29.886Z,-1.40
2018-11-21T00:11:11.372Z,-1.30
2018-11-21T00:13:52.557Z,-1.30
2018-11-21T00:16:34.689Z,-1.30
2018-11-21T00:19:16.784Z,-1.20
2018-11-21T00:21:58.124Z,-1.20
2018-11-21T00:24:39.360Z,-1.10
2018-11-21T00:27:20.468Z,-1.00
2018-11-21T00:30:02.312Z,-0.90
2018-11-21T00:32:43.502Z,-0.90
2018-11-21T00:35:25.571Z,-0.80
2018-11-21T00:38:06.727Z,-0.80
2018-11-21T00:40:48.405Z,-0.80
2018-11-21T00:43:29.637Z,-0.90
2018-11-21T00:46:11.578Z,-0.90
2018-11-21T00:48:52.638Z,-0.90
2018-11-21T00:51:34.495Z,-0.90
2018-11-21T00:54:16.465Z,-0.90
2018-11-21T00:56:57.477Z,-0.90
2018-11-21T00:59:38.947Z,-0.80
2018-11-21T01:02:20.570Z,-0.80
2018-11-21T01:05:02.219Z,-0.70
2018-11-21T01:07:43.802Z,-0.70
2018-11-21T01:10:25.714Z,-0.60
2018-11-21T01:13:06.684Z,-0.60
2018-11-21T01:15:48.227Z,-0.60
2018-11-21T01:18:29.890Z,-0.60
2018-11-21T01:21:11.491Z,-0.50
2018-11-21T01:23:52.817Z,-0.50
2018-11-21T01:26:34.793Z,-0.40
2018-11-21T01:29:16.389Z,-0.30
2018-11-21T01:31:58.359Z,-0.20
2018-11-21T01:34:39.717Z,-0.10
2018-11-21T01:37:21.574Z,0.00
2018-11-21T01:40:03.005Z,0.10
2018-11-21T01:42:44.531Z,0.20
2018-11-21T01:45:25.871Z,0.30
2018-11-21T01:47:56.029Z,0.40
2018-11-21T01:50:25.243Z,0.40
2018-11-21T01:52:54.809Z,0.50
2018-11-21T01:55:24.731Z,0.50
2018-11-21T01:57:54.631Z,0.50
2018-11-21T02:00:23.837Z,0.50
2018-11-21T02:02:53.429Z,0.60
2018-11-21T02:08:30.965Z,0.70
2018-11-21T02:11:01.374Z,0.70
2018-11-21T02:13:31.336Z,0.90
2018-11-21T02:16:01.436Z,0.90
2018-11-21T02:18:31.358Z,1.00
2018-11-21T02:21:00.915Z,1.00
2018-11-21T02:23:30.486Z,1.00
2018-11-21T02:26:00.396Z,1.00
2018-11-21T02:28:30.378Z,1.00
2018-11-21T02:31:00.318Z,1.10
2018-11-21T02:33:30.217Z,1.00
2018-11-21T02:35:59.479Z,1.10
2018-11-21T02:38:29.323Z,1.10
2018-11-21T02:40:59.564Z,1.10
2018-11-21T02:43:28.809Z,1.10
2018-11-21T02:45:59.004Z,1.20
2018-11-21T02:48:28.581Z,1.30
2018-11-21T02:50:58.179Z,1.30
2018-11-21T02:53:27.392Z,1.40
2018-11-21T02:55:57.598Z,1.40
2018-11-21T02:58:27.620Z,1.60
2018-11-21T03:00:57.219Z,1.70
2018-11-21T03:03:26.768Z,1.80
2018-11-21T03:05:56.678Z,1.90
2018-11-21T03:08:26.234Z,1.90
2018-11-21T03:10:55.765Z,1.90
2018-11-21T03:13:28.314Z,2.00
2018-11-21T03:15:54.551Z,2.00
2018-11-21T03:18:24.096Z,2.00
2018-11-21T03:20:54.122Z,2.10
2018-11-21T03:23:23.730Z,2.20
2018-11-21T03:25:53.303Z,2.20
2018-11-21T03:28:23.655Z,2.30
2018-11-21T03:30:53.647Z,2.30
2018-11-21T03:33:23.585Z,2.40
2018-11-21T03:35:53.154Z,2.40
2018-11-21T03:38:22.655Z,2.50
2018-11-21T03:40:52.621Z,2.50
2018-11-21T03:43:21.813Z,2.50
2018-11-21T03:45:51.389Z,2.60
2018-11-21T03:48:23.713Z,2.70
2018-11-21T03:50:53.083Z,2.70
2018-11-21T03:53:22.606Z,2.70
2018-11-21T03:55:52.486Z,2.80
2018-11-21T03:58:22.123Z,2.70
2018-11-21T04:00:51.313Z,2.70
2018-11-21T04:03:20.820Z,2.70
2018-11-21T04:05:50.332Z,2.80
2018-11-21T04:08:20.276Z,2.80
2018-11-21T04:10:50.257Z,2.80
2018-11-21T04:13:19.841Z,2.80
2018-11-21T04:15:49.372Z,2.90
2018-11-21T04:18:18.638Z,2.90
2018-11-21T04:24:20.246Z,3.00
2018-11-21T04:26:49.815Z,3.00
2018-11-21T04:29:34.130Z,3.10
2018-11-21T04:32:03.347Z,3.00
2018-11-21T04:34:32.913Z,3.00
2018-11-21T04:37:02.937Z,3.10
2018-11-21T04:39:35.033Z,3.00
2018-11-21T04:42:19.015Z,3.10
2018-11-21T04:44:48.519Z,3.10
2018-11-21T04:48:00.496Z,3.10
2018-11-21T04:50:29.685Z,3.20
2018-11-21T04:52:59.649Z,3.20
2018-11-21T04:55:29.578Z,3.20
2018-11-21T04:57:59.086Z,3.20
2018-11-21T05:00:28.996Z,3.20
2018-11-21T05:02:59.123Z,3.30
2018-11-21T05:05:29.105Z,3.30
2018-11-21T05:07:58.327Z,3.30
2018-11-21T05:10:27.910Z,3.30
2018-11-21T05:12:57.442Z,3.30
2018-11-21T05:15:27.013Z,3.30
2018-11-21T05:17:56.824Z,3.30
2018-11-21T05:20:27.696Z,3.30
2018-11-21T05:23:01.360Z,3.30
2018-11-21T05:25:31.662Z,3.30
2018-11-21T05:28:01.170Z,3.30
2018-11-21T05:30:30.688Z,3.30
2018-11-21T05:33:00.552Z,3.30
2018-11-21T05:35:30.192Z,3.30
2018-11-21T05:38:05.888Z,3.30
2018-11-21T05:40:36.493Z,3.20
2018-11-21T05:43:10.231Z,3.20
2018-11-21T05:45:40.654Z,3.20
2018-11-21T05:48:11.080Z,3.20
2018-11-21T05:50:46.807Z,3.30
2018-11-21T05:53:19.764Z,3.30
2018-11-21T05:55:50.742Z,3.40
2018-11-21T05:58:39.488Z,3.40
2018-11-21T06:01:09.939Z,3.30
2018-11-21T06:03:40.747Z,3.40
2018-11-21T06:06:11.063Z,3.40
2018-11-21T06:08:41.392Z,3.40
2018-11-21T06:11:11.832Z,3.40
2018-11-21T06:13:42.989Z,3.30
2018-11-21T06:16:13.456Z,3.40
2018-11-21T06:18:44.257Z,3.40
2018-11-21T06:21:14.792Z,3.40
2018-11-21T06:23:45.741Z,3.50
2018-11-21T06:26:16.343Z,3.50
2018-11-21T06:28:46.953Z,3.50
2018-11-21T06:31:16.826Z,3.50
2018-11-21T06:33:47.569Z,3.50
2018-11-21T06:36:17.797Z,3.50
2018-11-21T06:38:47.742Z,3.50
2018-11-21T06:41:18.705Z,3.50
2018-11-21T06:43:49.509Z,3.40
2018-11-21T06:46:19.402Z,3.40
2018-11-21T06:48:49.268Z,3.40
2018-11-21T06:51:19.676Z,3.40
2018-11-21T06:53:50.514Z,3.50
2018-11-21T06:56:21.054Z,3.50
2018-11-21T06:58:55.125Z,3.50
2018-11-21T07:01:21.889Z,3.50
2018-11-21T07:03:52.728Z,3.60
2018-11-21T07:06:23.378Z,3.50
2018-11-21T07:08:53.622Z,3.60
2018-11-21T07:11:23.934Z,3.60
2018-11-21T07:13:54.443Z,3.70
2018-11-21T07:16:25.185Z,3.70
2018-11-21T07:18:55.934Z,3.70
2018-11-21T07:21:26.158Z,3.80
2018-11-21T07:23:59.199Z,3.70
2018-11-21T07:26:29.110Z,3.70
2018-11-21T07:28:59.295Z,3.70
2018-11-21T07:31:29.772Z,3.70
2018-11-21T07:34:00.522Z,3.70
2018-11-21T07:36:31.311Z,3.70
2018-11-21T07:39:01.878Z,3.80
2018-11-21T07:41:31.649Z,3.80
2018-11-21T07:44:02.166Z,3.80
2018-11-21T07:46:32.588Z,3.80
2018-11-21T07:49:21.483Z,3.90
2018-11-21T07:52:03.130Z,3.90
2018-11-21T07:54:44.236Z,4.00
2018-11-21T07:57:25.565Z,4.00
2018-11-21T08:00:07.568Z,3.90
2018-11-21T08:03:07.726Z,4.00
2018-11-21T08:05:51.911Z,4.00
2018-11-21T08:08:55.353Z,4.10
2018-11-21T08:11:55.527Z,4.10
2018-11-21T08:18:01.482Z,4.20
2018-11-21T08:20:42.727Z,4.30
2018-11-21T08:23:46.456Z,4.30
2018-11-21T08:26:46.585Z,4.40
2018-11-21T08:29:28.239Z,4.40
2018-11-21T08:32:10.257Z,4.50
2018-11-21T08:34:52.059Z,4.60
2018-11-21T08:37:35.466Z,4.70
2018-11-21T08:40:15.601Z,4.70
2018-11-21T08:42:57.256Z,4.80
2018-11-21T08:45:38.633Z,4.80
2018-11-21T08:48:21.006Z,4.90
2018-11-21T08:51:02.488Z,4.90
2018-11-21T08:53:47.180Z,4.90
2018-11-21T08:56:28.275Z,5.00
2018-11-21T08:59:09.648Z,5.00
2018-11-21T09:01:51.479Z,5.00
2018-11-21T09:04:33.324Z,5.10
2018-11-21T09:07:14.708Z,5.10
2018-11-21T09:09:55.968Z,5.10
2018-11-21T09:12:37.745Z,5.10
2018-11-21T09:15:22.171Z,5.20
2018-11-21T09:18:00.926Z,5.20
2018-11-21T09:20:42.042Z,5.30
2018-11-21T09:23:23.822Z,5.30
2018-11-21T09:26:05.772Z,5.30
2018-11-21T09:28:47.652Z,5.30
2018-11-21T09:31:29.325Z,5.30
2018-11-21T09:34:11.585Z,5.30
2018-11-21T09:36:53.666Z,5.30
2018-11-21T09:39:35.063Z,5.30
2018-11-21T09:42:16.525Z,5.30
2018-11-21T09:44:58.229Z,5.30
2018-11-21T09:47:39.614Z,5.40
2018-11-21T09:50:23.520Z,5.40
2018-11-21T09:53:04.262Z,5.40
2018-11-21T09:55:45.841Z,5.40
2018-11-21T09:58:27.484Z,5.40
2018-11-21T10:01:08.583Z,5.50
2018-11-21T10:03:50.235Z,5.40
2018-11-21T10:06:32.017Z,5.40
2018-11-21T10:09:16.223Z,5.40
2018-11-21T10:11:57.967Z,5.40
2018-11-21T10:14:39.111Z,5.50
2018-11-21T10:17:21.118Z,5.50
2018-11-21T10:20:03.080Z,5.60
2018-11-21T10:22:44.932Z,5.50
2018-11-21T10:25:26.479Z,5.50
2018-11-21T10:28:08.722Z,5.50
2018-11-21T10:30:50.373Z,5.50
2018-11-21T10:33:31.970Z,5.60
2018-11-21T10:36:13.675Z,5.60
2018-11-21T10:38:54.918Z,5.70
2018-11-21T10:41:36.922Z,5.70
2018-11-21T10:44:20.075Z,5.80
2018-11-21T10:47:00.609Z,5.80
2018-11-21T10:49:42.351Z,5.80
2018-11-21T10:52:25.267Z,5.80
2018-11-21T10:55:05.800Z,5.80
2018-11-21T10:57:47.973Z,5.80
2018-11-21T11:00:49.662Z,5.80
2018-11-21T11:03:39.646Z,5.70
2018-11-21T11:06:40.379Z,5.60
2018-11-21T11:09:40.764Z,5.60
2018-11-21T11:12:40.951Z,5.70
2018-11-21T11:15:44.468Z,5.70
2018-11-21T11:18:44.565Z,5.80
2018-11-21T11:21:48.125Z,5.70
2018-11-21T11:24:48.267Z,5.80
2018-11-21T11:27:52.113Z,5.80
2018-11-21T11:30:56.631Z,5.80
2018-11-21T11:33:57.466Z,5.80
2018-11-21T11:37:20.641Z,5.90
2018-11-21T11:40:20.945Z,5.90
2018-11-21T11:43:21.250Z,6.00
2018-11-21T11:46:21.640Z,6.00
2018-11-21T11:49:21.920Z,6.00
2018-11-21T11:52:22.486Z,6.00
2018-11-21T11:55:22.913Z,6.10
2018-11-21T11:58:29.030Z,6.10
2018-11-21T12:01:29.673Z,6.10
2018-11-21T12:04:32.916Z,6.10
2018-11-21T12:07:33.271Z,6.10
2018-11-21T12:10:39.834Z,6.00
2018-11-21T12:13:40.197Z,5.90
2018-11-21T12:16:44.057Z,5.90
2018-11-21T12:19:33.008Z,6.00
2018-11-21T12:22:40.705Z,6.00
2018-11-21T12:25:41.407Z,6.00
2018-11-21T12:28:42.001Z,6.00
2018-11-21T12:31:42.375Z,6.00
2018-11-21T12:34:42.495Z,6.10
2018-11-21T12:37:42.696Z,6.00
2018-11-21T12:43:46.331Z,5.80
2018-11-21T12:46:46.601Z,5.80
2018-11-21T12:49:47.505Z,5.60
2018-11-21T12:52:47.797Z,5.50
2018-11-21T12:55:45.007Z,5.40
2018-11-21T12:58:42.649Z,5.30
2018-11-21T13:01:49.337Z,5.30
2018-11-21T13:04:50.195Z,5.40
2018-11-21T13:07:53.387Z,5.40
2018-11-21T13:10:53.829Z,5.40
2018-11-21T13:13:54.074Z,5.40
2018-11-21T13:16:54.380Z,5.40
2018-11-21T13:19:54.514Z,5.40
2018-11-21T13:22:57.879Z,5.40
2018-11-21T13:25:58.579Z,5.30
2018-11-21T13:28:58.878Z,5.30
2018-11-21T13:32:02.311Z,5.30
2018-11-21T13:34:50.676Z,5.20
2018-11-21T13:37:57.540Z,5.30
2018-11-21T13:40:59.464Z,5.30
2018-11-21T13:43:59.544Z,5.40
2018-11-21T13:47:00.095Z,5.40
2018-11-21T13:50:03.326Z,5.30
2018-11-21T13:53:04.145Z,5.00
2018-11-21T13:55:45.776Z,5.00
2018-11-21T13:58:27.704Z,5.10
2018-11-21T14:01:10.003Z,5.20
2018-11-21T14:03:51.052Z,5.20
2018-11-21T14:06:32.270Z,5.20
2018-11-21T14:09:18.780Z,5.30
2018-11-21T14:12:00.141Z,5.40
2018-11-21T14:14:41.802Z,5.40
2018-11-21T14:17:11.903Z,5.40
2018-11-21T14:19:42.366Z,5.40
2018-11-21T14:22:13.033Z,5.30
2018-11-21T14:24:43.608Z,5.20
2018-11-21T14:27:13.313Z,5.30
2018-11-21T14:29:42.600Z,5.20
2018-11-21T14:32:11.978Z,5.20
2018-11-21T14:34:41.563Z,5.20
2018-11-21T14:37:11.205Z,5.20
2018-11-21T14:39:41.491Z,5.20
2018-11-21T14:42:11.165Z,5.20
2018-11-21T14:44:40.442Z,5.20
2018-11-21T14:47:12.899Z,5.10
2018-11-21T14:49:43.322Z,5.10
2018-11-21T14:52:12.646Z,5.10
2018-11-21T14:54:42.310Z,5.10
2018-11-21T14:57:12.357Z,5.10
2018-11-21T14:59:42.334Z,5.10
2018-11-21T15:02:11.685Z,5.00
2018-11-21T15:04:41.352Z,4.90
2018-11-21T15:07:11.201Z,4.90
2018-11-21T15:09:41.316Z,4.90
2018-11-21T15:12:10.580Z,4.80
2018-11-21T15:14:40.424Z,4.80
2018-11-21T15:17:10.403Z,4.80
2018-11-21T15:19:40.146Z,4.80
2018-11-21T15:22:09.683Z,4.80
2018-11-21T15:24:39.344Z,4.70
2018-11-21T15:27:09.670Z,4.70
2018-11-21T15:29:39.560Z,4.80
2018-11-21T15:32:10.121Z,4.80
2018-11-21T15:34:40.722Z,4.80
2018-11-21T15:37:12.966Z,4.90
2018-11-21T15:39:44.141Z,4.90
2018-11-21T15:42:15.188Z,4.90
2018-11-21T15:44:45.589Z,5.00
2018-11-21T15:47:15.699Z,5.00
2018-11-21T15:49:45.992Z,5.00
2018-11-21T15:52:17.886Z,5.00
2018-11-21T15:54:48.226Z,5.10
2018-11-21T15:57:19.080Z,5.10
2018-11-21T15:59:49.627Z,5.10
2018-11-21T16:02:20.930Z,5.20
2018-11-21T16:04:51.858Z,5.20
2018-11-21T16:07:22.323Z,5.20
2018-11-21T16:09:52.635Z,5.20
2018-11-21T16:12:23.415Z,5.20
2018-11-21T16:14:55.211Z,5.30
2018-11-21T16:17:25.230Z,5.30
2018-11-21T16:19:55.136Z,5.30
2018-11-21T16:22:25.001Z,5.30
2018-11-21T16:24:55.408Z,5.20
2018-11-21T16:27:26.296Z,5.30
2018-11-21T16:29:57.289Z,5.30
2018-11-21T16:32:27.420Z,5.30
2018-11-21T16:34:57.377Z,5.30
2018-11-21T16:37:28.450Z,5.30
2018-11-21T16:39:59.335Z,5.30
2018-11-21T16:42:30.429Z,5.30
2018-11-21T16:45:01.077Z,5.30
2018-11-21T16:47:31.428Z,5.30
2018-11-21T16:50:01.529Z,5.30
2018-11-21T16:52:32.499Z,5.30
2018-11-21T16:55:02.476Z,5.30
2018-11-21T16:57:33.983Z,5.30
2018-11-21T17:00:04.730Z,5.40
2018-11-21T17:02:35.568Z,5.40
2018-11-21T17:05:07.463Z,5.40
2018-11-21T17:07:37.857Z,5.40
2018-11-21T17:10:11.004Z,5.50
2018-11-21T17:12:42.189Z,5.40
2018-11-21T17:15:18.107Z,5.40
2018-11-21T17:17:49.491Z,5.40
2018-11-21T17:20:21.850Z,5.40
2018-11-21T17:22:54.449Z,5.30
2018-11-21T17:25:26.825Z,5.30
2018-11-21T17:27:57.141Z,5.30
2018-11-21T17:30:27.386Z,5.30
2018-11-21T17:32:57.384Z,5.30
2018-11-21T17:35:28.299Z,5.20
2018-11-21T17:38:02.052Z,5.20
2018-11-21T17:40:38.192Z,5.20
2018-11-21T17:43:09.183Z,5.20
2018-11-21T17:45:39.593Z,5.20
2018-11-21T17:48:13.282Z,5.20
2018-11-21T17:50:43.479Z,5.20
2018-11-21T17:53:14.254Z,5.20
2018-11-21T17:55:45.141Z,5.20
2018-11-21T17:58:16.210Z,5.30
2018-11-21T18:00:46.827Z,5.30
2018-11-21T18:03:16.916Z,5.30
2018-11-21T18:05:47.247Z,5.30
2018-11-21T18:08:17.481Z,5.30
2018-11-21T18:10:48.123Z,5.40
2018-11-21T18:13:19.147Z,5.40
2018-11-21T18:15:49.207Z,5.40
2018-11-21T18:18:19.664Z,5.40
2018-11-21T18:20:49.690Z,5.40
2018-11-21T18:23:20.637Z,5.40
2018-11-21T18:25:50.855Z,5.40
2018-11-21T18:28:20.732Z,5.30
2018-11-21T18:30:50.986Z,5.30
2018-11-21T18:33:21.691Z,5.30
2018-11-21T18:35:52.550Z,5.20
2018-11-21T18:38:23.513Z,5.20
2018-11-21T18:40:54.614Z,5.20
2018-11-21T18:43:24.502Z,5.10
2018-11-21T18:45:54.771Z,5.10
2018-11-21T18:48:25.164Z,5.10
2018-11-21T18:50:55.749Z,5.10
2018-11-21T18:53:27.089Z,5.10
2018-11-21T18:56:07.413Z,5.10
2018-11-21T18:59:17.460Z,5.10
2018-11-21T19:01:48.891Z,5.20
2018-11-21T19:04:20.177Z,5.20
2018-11-21T19:06:50.455Z,5.10
